Time;durP1;ratioP1;P1;durP2;ratioP2;P2;SDS_P1;SDS_P2;PMS_P1;PMS_P2;Temp;Humidity;BMP_temperature;BMP_pressure;BME280_temperature;BME280_humidity;BME280_pressure;Samples;Min_cycle;Max_cycle;Signal;HPM_P1;HPM_P2
2022/11/14 00:01:17;;;;;;;14.20;10.83;;;;;;;9.05;79.05;100437.53;4980429;28;20411;-79
2022/11/14 00:03:43;;;;;;;15.93;11.38;;;;;;;9.05;79.66;100432.13;4984789;28;20445;-79
2022/11/14 00:06:08;;;;;;;16.10;11.77;;;;;;;9.05;79.12;100423.19;4994889;28;20397;-79
2022/11/14 00:08:34;;;;;;;15.13;11.27;;;;;;;9.06;79.24;100422.94;4993607;28;20409;-79
2022/11/14 00:10:59;;;;;;;15.20;11.02;;;;;;;9.07;79.53;100413.78;4992945;28;20426;-79
2022/11/14 00:13:25;;;;;;;13.80;10.37;;;;;;;9.06;79.39;100408.59;4988482;28;20418;-79
2022/11/14 00:15:53;;;;;;;13.60;10.17;;;;;;;9.04;79.25;100411.53;4995748;28;20408;-79
2022/11/14 00:18:19;;;;;;;12.52;10.45;;;;;;;9.01;79.33;100409.31;4987916;28;20756;-79
2022/11/14 00:20:48;;;;;;;14.10;10.00;;;;;;;9.02;79.32;100412.84;4992577;28;20406;-79
2022/11/14 00:23:14;;;;;;;13.82;9.60;;;;;;;9.03;79.11;100409.06;4988223;28;20412;-79
2022/11/14 00:25:39;;;;;;;13.18;9.50;;;;;;;9.03;79.44;100422.56;5004163;28;20422;-79
2022/11/14 00:28:04;;;;;;;13.50;9.87;;;;;;;9.04;79.43;100416.13;4989956;28;20498;-80
2022/11/14 00:30:29;;;;;;;14.87;10.00;;;;;;;9.03;79.22;100407.19;5001622;28;20411;-79
2022/11/14 00:32:55;;;;;;;12.03;9.30;;;;;;;9.03;79.16;100406.34;4987860;28;20452;-79
2022/11/14 00:35:20;;;;;;;13.37;9.57;;;;;;;9.02;79.53;100408.25;4991982;28;20444;-79
2022/11/14 00:37:45;;;;;;;12.27;9.37;;;;;;;9.03;79.16;100407.19;4986938;28;20454;-79
2022/11/14 00:40:13;;;;;;;13.17;9.13;;;;;;;9.04;78.89;100403.44;4992770;28;20443;-79
2022/11/14 00:42:38;;;;;;;12.98;8.80;;;;;;;9.03;79.14;100403.66;4980641;28;20534;-79
2022/11/14 00:45:04;;;;;;;11.27;8.53;;;;;;;9.02;79.21;100396.63;4985992;28;20485;-79
2022/11/14 00:47:29;;;;;;;11.33;8.83;;;;;;;9.03;79.34;100396.38;4986302;28;20400;-79
2022/11/14 00:49:55;;;;;;;11.37;8.93;;;;;;;8.97;79.16;100396.50;4986166;28;20414;-79
2022/11/14 00:52:20;;;;;;;12.03;8.70;;;;;;;8.95;79.80;100396.75;4983518;28;20985;-79
2022/11/14 00:54:45;;;;;;;13.57;8.97;;;;;;;8.99;79.72;100406.00;4980301;28;20400;-79
2022/11/14 00:57:10;;;;;;;11.03;8.37;;;;;;;8.98;79.35;100396.28;4984022;28;20767;-79
2022/11/14 00:59:36;;;;;;;11.77;8.50;;;;;;;9.01;78.93;100405.78;4990413;28;20407;-79
2022/11/14 01:02:01;;;;;;;10.43;8.13;;;;;;;9.01;79.19;100400.38;4985354;28;20937;-79
2022/11/14 01:04:27;;;;;;;9.97;7.93;;;;;;;8.97;79.25;100404.59;4987336;28;20503;-79
2022/11/14 01:06:52;;;;;;;11.65;9.10;;;;;;;8.92;79.10;100410.72;4987827;28;20404;-79
2022/11/14 01:09:17;;;;;;;11.33;9.07;;;;;;;8.92;79.60;100410.72;5008337;28;20385;-79
2022/11/14 01:11:42;;;;;;;12.53;8.40;;;;;;;8.93;79.84;100406.13;4992455;28;21042;-79
2022/11/14 01:14:08;;;;;;;12.47;8.47;;;;;;;8.93;79.75;100401.53;4987221;28;20406;-79
2022/11/14 01:16:34;;;;;;;12.97;8.40;;;;;;;8.94;79.54;100400.50;4987085;28;20957;-79
2022/11/14 01:19:00;;;;;;;12.27;8.23;;;;;;;8.96;79.45;100394.88;4993869;28;20400;-79
2022/11/14 01:21:25;;;;;;;9.93;7.70;;;;;;;8.95;79.61;100388.63;4994083;28;21296;-79
2022/11/14 01:23:51;;;;;;;9.73;8.40;;;;;;;8.97;79.49;100389.22;4983718;28;20423;-79
2022/11/14 01:26:16;;;;;;;10.60;8.63;;;;;;;8.95;78.83;100396.75;4996570;28;20445;-79
2022/11/14 01:28:41;;;;;;;10.10;8.30;;;;;;;8.92;79.28;100386.41;4988983;28;20406;-79
2022/11/14 01:31:08;;;;;;;10.55;8.43;;;;;;;8.94;79.34;100386.97;4980268;28;20506;-79
2022/11/14 01:33:33;;;;;;;11.32;8.10;;;;;;;8.93;79.24;100381.81;4990198;28;20438;-79
2022/11/14 01:35:59;;;;;;;10.60;8.17;;;;;;;8.97;79.05;100364.88;4984640;28;20403;-79
2022/11/14 01:38:24;;;;;;;10.55;7.75;;;;;;;9.00;79.10;100356.31;4985845;28;20402;-79
2022/11/14 01:40:50;;;;;;;10.20;8.13;;;;;;;9.01;79.04;100346.31;4984484;28;20404;-79
2022/11/14 01:43:21;;;;;;;9.63;7.87;;;;;;;9.00;79.16;100344.66;4989770;28;20771;-79
2022/11/14 01:45:58;;;;;;;10.60;7.80;;;;;;;8.98;79.01;100344.09;4993508;28;20414;-79
2022/11/14 01:48:47;;;;;;;10.07;7.90;;;;;;;8.96;78.99;100341.59;4996041;28;20405;-79
2022/11/14 01:51:22;;;;;;;10.45;7.97;;;;;;;8.94;79.40;100342.91;4985839;28;20474;-79
2022/11/14 01:53:50;;;;;;;9.98;8.20;;;;;;;8.81;79.59;100334.00;4978237;28;20412;-79
2022/11/14 01:56:20;;;;;;;10.13;8.70;;;;;;;8.78;79.47;100328.25;4985423;28;20465;-79
2022/11/14 01:58:50;;;;;;;10.38;8.40;;;;;;;8.71;79.56;100331.06;4983404;28;20472;-79
2022/11/14 02:01:16;;;;;;;11.45;8.52;;;;;;;8.83;79.43;100325.66;4982124;28;20464;-79
2022/11/14 02:03:44;;;;;;;10.77;9.03;;;;;;;8.79;79.53;100327.19;4979042;28;20885;-79
2022/11/14 02:06:14;;;;;;;10.48;8.63;;;;;;;8.85;79.60;100326.25;4987214;28;20759;-79
2022/11/14 02:08:40;;;;;;;9.73;8.35;;;;;;;8.89;79.65;100316.63;5004967;28;20402;-79
2022/11/14 02:11:09;;;;;;;11.75;9.35;;;;;;;8.93;79.33;100311.53;4985975;28;20966;-79
2022/11/14 02:13:34;;;;;;;11.60;8.32;;;;;;;8.95;79.39;100309.44;4987320;28;20506;-79
2022/11/14 02:16:00;;;;;;;12.43;9.43;;;;;;;8.88;79.01;100308.72;4986613;28;20484;-79
2022/11/14 02:18:25;;;;;;;11.07;8.88;;;;;;;8.79;79.44;100305.59;4989850;28;20406;-79
2022/11/14 02:20:50;;;;;;;11.80;9.00;;;;;;;8.82;79.57;100300.50;4992244;28;20402;-79
2022/11/14 02:23:25;;;;;;;10.10;8.23;;;;;;;8.80;79.61;100299.09;4990171;28;20401;-79
2022/11/14 02:25:51;;;;;;;12.50;9.23;;;;;;;8.81;79.45;100300.75;4996285;28;20405;-79
2022/11/14 02:28:16;;;;;;;11.37;8.40;;;;;;;8.78;79.11;100295.81;4988951;28;20423;-79
2022/11/14 02:30:41;;;;;;;12.20;9.07;;;;;;;8.77;79.85;100292.28;4987058;28;20871;-79
2022/11/14 02:33:06;;;;;;;12.07;8.80;;;;;;;8.78;79.86;100299.34;4981660;28;20414;-79
2022/11/14 02:35:32;;;;;;;11.50;8.67;;;;;;;8.78;80.03;100287.72;4990258;28;20401;-79
2022/11/14 02:37:57;;;;;;;15.27;9.40;;;;;;;8.73;79.64;100288.41;4991297;28;20916;-79
2022/11/14 02:40:22;;;;;;;11.93;8.90;;;;;;;8.68;79.91;100282.09;4983379;28;20414;-79
2022/11/14 02:42:48;;;;;;;11.60;8.90;;;;;;;8.67;79.43;100275.03;4987106;28;20418;-79
2022/11/14 02:45:13;;;;;;;13.83;8.90;;;;;;;8.60;79.36;100272.47;4988408;28;20466;-79
2022/11/14 02:47:38;;;;;;;12.07;8.60;;;;;;;8.60;79.62;100277.03;4989711;28;20489;-79
2022/11/14 02:50:04;;;;;;;11.03;9.30;;;;;;;8.62;79.94;100275.75;4984917;28;20413;-79
2022/11/14 02:52:29;;;;;;;12.93;8.98;;;;;;;8.62;79.67;100274.94;4989581;28;20492;-79
2022/11/14 02:54:54;;;;;;;11.07;8.47;;;;;;;8.54;79.74;100278.81;4994037;28;20505;-79
2022/11/14 02:57:20;;;;;;;12.00;8.93;;;;;;;8.58;79.22;100276.47;4993293;28;20469;-79
2022/11/14 02:59:45;;;;;;;11.17;8.47;;;;;;;8.46;79.79;100275.66;4984921;28;20781;-79
2022/11/14 03:02:10;;;;;;;12.90;9.13;;;;;;;8.41;80.27;100275.53;4989575;28;20450;-79
2022/11/14 03:04:35;;;;;;;12.33;8.53;;;;;;;8.48;79.63;100285.16;4988051;28;20881;-79
2022/11/14 03:07:01;;;;;;;10.93;8.13;;;;;;;8.53;80.08;100279.06;4989436;28;20421;-79
2022/11/14 03:09:26;;;;;;;10.38;7.95;;;;;;;8.54;79.46;100288.78;4988100;28;20885;-79
2022/11/14 03:11:51;;;;;;;9.70;7.83;;;;;;;8.56;79.58;100279.38;4986242;28;20415;-79
2022/11/14 03:14:17;;;;;;;10.37;8.17;;;;;;;8.55;79.40;100282.34;4990145;28;20873;-79
2022/11/14 03:16:42;;;;;;;10.23;7.93;;;;;;;8.49;79.12;100289.50;4988688;28;20402;-79
2022/11/14 03:19:07;;;;;;;9.63;7.53;;;;;;;8.49;79.61;100281.41;4989784;28;20494;-79
2022/11/14 03:21:32;;;;;;;9.33;8.10;;;;;;;8.47;79.65;100282.69;4981188;28;20505;-79
2022/11/14 03:23:58;;;;;;;9.87;8.00;;;;;;;8.43;79.31;100276.94;4993144;28;20762;-79
2022/11/14 03:26:23;;;;;;;9.40;7.33;;;;;;;8.47;79.44;100277.28;4992965;28;20765;-79
2022/11/14 03:28:48;;;;;;;10.70;8.05;;;;;;;8.49;79.71;100267.91;4990150;28;20420;-79
2022/11/14 03:31:14;;;;;;;9.83;8.23;;;;;;;8.32;79.11;100265.09;4989748;28;20893;-80
2022/11/14 03:33:39;;;;;;;8.82;7.25;;;;;;;8.20;80.13;100272.31;4995207;28;20449;-79
2022/11/14 03:36:05;;;;;;;9.17;7.53;;;;;;;8.33;80.06;100271.31;4994819;28;20429;-79
2022/11/14 03:38:31;;;;;;;9.10;7.50;;;;;;;8.32;79.25;100262.41;4993134;28;20404;-79
2022/11/14 03:41:00;;;;;;;8.73;7.30;;;;;;;8.37;79.60;100260.84;4985329;28;20946;-79
2022/11/14 03:43:30;;;;;;;9.25;7.20;;;;;;;8.41;78.89;100260.16;4988220;28;20414;-79
2022/11/14 03:46:01;;;;;;;9.80;7.88;;;;;;;8.48;79.21;100260.84;4991603;28;20442;-79
2022/11/14 03:48:27;;;;;;;9.57;7.85;;;;;;;8.50;78.74;100261.44;4988741;28;20404;-79
2022/11/14 03:50:52;;;;;;;9.03;7.33;;;;;;;8.49;78.45;100267.09;4988193;28;20418;-79
2022/11/14 03:53:17;;;;;;;7.70;6.87;;;;;;;8.39;78.05;100262.28;4993887;28;20502;-79
2022/11/14 03:55:43;;;;;;;9.20;7.70;;;;;;;8.19;78.49;100265.28;4989534;28;20430;-79
2022/11/14 03:58:08;;;;;;;8.60;7.33;;;;;;;8.14;79.25;100264.31;4985849;28;20437;-79
2022/11/14 04:00:33;;;;;;;10.07;7.82;;;;;;;8.26;78.92;100259.78;4989526;28;20416;-79
2022/11/14 04:02:59;;;;;;;9.93;7.77;;;;;;;8.31;78.64;100260.75;4988529;28;20534;-79
2022/11/14 04:05:24;;;;;;;9.47;8.03;;;;;;;8.24;78.06;100273.50;4990099;28;20485;-79
2022/11/14 04:07:50;;;;;;;12.37;8.33;;;;;;;8.19;78.43;100269.88;4994301;28;20504;-79
2022/11/14 04:10:16;;;;;;;11.13;8.47;;;;;;;8.25;78.85;100253.56;4985561;28;20400;-79
2022/11/14 04:12:47;;;;;;;11.27;8.10;;;;;;;8.36;78.23;100246.53;4987582;28;20517;-79
2022/11/14 04:15:13;;;;;;;13.32;9.00;;;;;;;8.36;78.05;100243.03;4989835;28;20410;-79
2022/11/14 04:17:38;;;;;;;10.07;8.13;;;;;;;8.37;78.29;100240.06;4990961;28;20785;-79
2022/11/14 04:20:04;;;;;;;12.30;8.33;;;;;;;8.39;77.72;100229.88;5007346;28;20406;-79
2022/11/14 04:22:29;;;;;;;10.50;8.40;;;;;;;8.40;78.14;100230.69;4986396;28;20407;-78
2022/11/14 04:24:54;;;;;;;11.73;8.33;;;;;;;8.40;78.07;100230.69;4987900;28;20758;-79
2022/11/14 04:27:19;;;;;;;12.53;8.87;;;;;;;8.38;77.77;100230.09;5003130;28;20404;-79
2022/11/14 04:29:45;;;;;;;10.23;8.60;;;;;;;8.33;78.27;100222.72;4986317;28;20403;-79
2022/11/14 04:32:10;;;;;;;13.90;9.33;;;;;;;8.35;78.32;100220.59;4999872;28;20515;-79
2022/11/14 04:34:35;;;;;;;13.10;9.10;;;;;;;8.38;78.42;100214.72;4986782;28;20413;-79
2022/11/14 04:37:01;;;;;;;9.75;8.10;;;;;;;8.41;77.53;100218.81;4991436;28;20402;-79
2022/11/14 04:39:26;;;;;;;12.47;9.23;;;;;;;8.40;77.53;100223.38;4996478;28;20440;-79
2022/11/14 04:41:51;;;;;;;11.93;9.18;;;;;;;8.37;77.81;100223.88;4995585;28;20410;-79
2022/11/14 04:44:16;;;;;;;12.60;9.60;;;;;;;8.33;78.03;100218.13;5007390;28;20426;-79
2022/11/14 04:46:42;;;;;;;11.73;9.53;;;;;;;8.33;77.81;100211.91;4992543;28;20503;-79
2022/11/14 04:49:07;;;;;;;12.03;9.13;;;;;;;8.32;77.55;100221.06;4984475;28;20493;-79
2022/11/14 04:51:32;;;;;;;13.00;10.07;;;;;;;8.31;78.05;100228.34;4991548;28;20503;-78
2022/11/14 04:53:57;;;;;;;12.23;9.80;;;;;;;8.32;77.95;100221.06;4988978;28;20921;-79
2022/11/14 04:56:24;;;;;;;19.30;11.43;;;;;;;8.32;77.81;100224.59;4988609;28;20422;-79
2022/11/14 04:58:50;;;;;;;14.50;10.43;;;;;;;8.30;77.56;100234.78;4988552;28;20423;-79
2022/11/14 05:01:15;;;;;;;16.03;11.13;;;;;;;8.28;77.84;100236.09;4985107;28;20897;-79
2022/11/14 05:03:41;;;;;;;14.40;10.53;;;;;;;8.29;77.84;100232.34;4991565;28;20410;-79
2022/11/14 05:06:06;;;;;;;11.70;9.87;;;;;;;8.25;77.92;100228.44;4984900;28;20801;-79
2022/11/14 05:08:31;;;;;;;13.03;10.40;;;;;;;8.27;77.46;100231.69;5003699;28;20406;-79
2022/11/14 05:10:57;;;;;;;15.57;10.53;;;;;;;8.26;77.70;100233.59;4992833;28;20416;-79
2022/11/14 05:13:22;;;;;;;12.70;10.80;;;;;;;8.27;77.61;100240.63;4995223;28;20410;-79
2022/11/14 05:15:47;;;;;;;12.97;10.83;;;;;;;8.30;77.80;100225.88;4982505;28;20410;-79
2022/11/14 05:18:12;;;;;;;12.68;10.07;;;;;;;8.28;77.66;100220.72;5002056;28;20469;-79
2022/11/14 05:20:38;;;;;;;12.77;10.43;;;;;;;8.29;77.25;100214.28;4986567;28;20769;-79
2022/11/14 05:23:03;;;;;;;13.90;10.60;;;;;;;8.31;77.20;100209.44;4978709;28;20412;-79
2022/11/14 05:25:28;;;;;;;12.83;10.10;;;;;;;8.28;77.60;100222.59;4982551;28;20900;-79
2022/11/14 05:27:54;;;;;;;13.30;10.60;;;;;;;8.17;77.62;100223.38;4988899;28;20896;-79
2022/11/14 05:30:19;;;;;;;13.35;10.38;;;;;;;8.18;77.78;100215.06;4986099;28;20954;-80
2022/11/14 05:32:44;;;;;;;13.93;11.03;;;;;;;8.20;77.55;100209.44;4977875;28;20434;-80
2022/11/14 05:35:10;;;;;;;13.85;10.60;;;;;;;8.21;77.39;100211.06;4980958;28;20832;-80
2022/11/14 05:37:35;;;;;;;14.40;11.37;;;;;;;8.09;77.51;100212.94;4979590;28;20960;-79
2022/11/14 05:40:02;;;;;;;14.17;11.13;;;;;;;8.11;77.50;100202.72;4980514;28;20499;-80
2022/11/14 05:42:27;;;;;;;16.52;11.73;;;;;;;8.18;77.34;100188.06;4984804;28;20503;-80
2022/11/14 05:44:52;;;;;;;14.73;11.03;;;;;;;8.21;77.46;100186.75;4982512;28;20501;-80
2022/11/14 05:47:18;;;;;;;13.13;11.17;;;;;;;8.21;77.52;100179.50;4981964;28;20500;-79
2022/11/14 05:49:43;;;;;;;17.13;12.93;;;;;;;8.21;77.53;100186.75;4978150;28;20412;-80
2022/11/14 05:52:09;;;;;;;14.23;11.13;;;;;;;8.21;77.60;100171.38;4977803;28;20432;-80
2022/11/14 05:54:35;;;;;;;13.85;11.20;;;;;;;8.22;77.46;100164.13;4978645;28;20400;-78
2022/11/14 05:57:00;;;;;;;12.60;10.40;;;;;;;8.23;77.63;100163.88;4976623;28;20405;-81
2022/11/14 05:59:26;;;;;;;13.75;11.82;;;;;;;8.21;77.51;100167.84;4975920;28;20413;-79
2022/11/14 06:01:51;;;;;;;13.95;11.32;;;;;;;8.21;77.36;100159.75;4976293;28;20404;-78
2022/11/14 06:04:17;;;;;;;16.40;11.57;;;;;;;8.26;76.89;100168.00;4978054;28;20462;-79
2022/11/14 06:06:42;;;;;;;14.97;11.33;;;;;;;8.20;76.74;100171.66;4976724;28;20474;-80
2022/11/14 06:09:07;;;;;;;12.75;10.23;;;;;;;8.21;77.10;100162.47;4982925;28;20396;-79
2022/11/14 06:11:33;;;;;;;12.47;10.03;;;;;;;8.24;77.25;100162.81;4985244;28;20418;-80
2022/11/14 06:13:58;;;;;;;11.83;10.07;;;;;;;8.24;76.67;100172.78;4982694;28;20505;-80
2022/11/14 06:16:24;;;;;;;11.20;10.05;;;;;;;8.20;77.20;100166.25;4982550;28;20414;-79
2022/11/14 06:18:53;;;;;;;11.02;9.88;;;;;;;8.18;76.89;100163.75;5003353;28;20421;-77
2022/11/14 06:21:21;;;;;;;11.00;9.35;;;;;;;8.16;77.32;100165.88;4983744;28;20404;-81
2022/11/14 06:23:48;;;;;;;11.15;9.95;;;;;;;8.10;76.84;100172.22;4995172;28;20405;-78
2022/11/14 06:26:30;;;;;;;11.82;9.40;;;;;;;8.05;77.07;100165.88;4980210;28;20422;-78
2022/11/14 06:28:56;;;;;;;10.00;9.00;;;;;;;8.01;77.41;100154.72;4980241;28;20519;-78
2022/11/14 06:31:22;;;;;;;11.35;9.80;;;;;;;7.98;77.36;100152.50;4980658;28;20430;-79
2022/11/14 06:33:48;;;;;;;11.80;10.27;;;;;;;8.00;77.85;100146.91;4978833;28;20406;-77
2022/11/14 06:36:14;;;;;;;10.05;8.95;;;;;;;7.98;77.50;100143.59;4979445;28;22590;-77
2022/11/14 06:38:40;;;;;;;10.27;9.05;;;;;;;7.98;77.23;100140.88;4980828;28;20410;-77
2022/11/14 06:41:08;;;;;;;11.32;9.50;;;;;;;7.98;77.61;100143.59;4981240;28;20414;-77
2022/11/14 06:43:35;;;;;;;13.77;9.95;;;;;;;7.98;77.90;100157.09;4978942;28;20417;-77
2022/11/14 06:46:01;;;;;;;18.10;10.55;;;;;;;8.03;77.69;100159.91;4993489;28;20926;-76
2022/11/14 06:48:27;;;;;;;16.27;10.45;;;;;;;8.04;77.06;100156.97;4979269;28;20822;-77
2022/11/14 06:50:54;;;;;;;11.13;9.98;;;;;;;8.00;77.76;100149.59;4979434;28;20407;-77
2022/11/14 06:53:20;;;;;;;12.07;9.40;;;;;;;7.95;77.73;100160.25;5011668;28;20492;-81
2022/11/14 06:55:57;;;;;;;11.77;10.00;;;;;;;7.91;77.76;100161.78;5007773;28;20907;-79
2022/11/14 06:58:25;;;;;;;11.07;8.75;;;;;;;7.88;77.68;100162.25;4990314;28;20402;-78
2022/11/14 07:00:53;;;;;;;12.00;10.05;;;;;;;7.89;77.49;100177.38;4991320;28;21316;-79
2022/11/14 07:03:20;;;;;;;11.20;9.60;;;;;;;7.88;78.28;100179.25;4988370;28;20488;-78
2022/11/14 07:05:46;;;;;;;11.90;9.55;;;;;;;7.90;77.87;100176.34;4994910;28;20449;-78
2022/11/14 07:08:11;;;;;;;33.27;12.03;;;;;;;7.90;77.96;100177.16;4996311;28;20557;-78
2022/11/14 07:10:37;;;;;;;13.03;9.97;;;;;;;7.93;77.66;100182.09;4997910;28;20948;-79
2022/11/14 07:13:02;;;;;;;12.73;9.82;;;;;;;7.97;78.18;100169.75;4994230;28;20434;-79
2022/11/14 07:15:27;;;;;;;15.20;10.27;;;;;;;7.98;78.04;100174.09;4998524;28;20405;-78
2022/11/14 07:17:52;;;;;;;13.73;9.90;;;;;;;8.05;77.60;100174.81;4998431;28;20411;-77
2022/11/14 07:20:21;;;;;;;10.93;9.23;;;;;;;8.09;77.79;100186.78;5000721;28;20458;-78
2022/11/14 07:22:46;;;;;;;11.68;9.57;;;;;;;8.13;77.45;100189.84;4991510;28;20411;-80
2022/11/14 07:25:12;;;;;;;14.63;9.40;;;;;;;8.18;77.46;100182.66;4999660;28;20401;-80
2022/11/14 07:27:38;;;;;;;10.32;8.13;;;;;;;8.20;77.11;100185.94;4988324;28;20420;-79
2022/11/14 07:30:04;;;;;;;9.50;8.60;;;;;;;8.19;77.57;100184.31;4987315;28;20403;-79
2022/11/14 07:32:29;;;;;;;9.07;7.70;;;;;;;8.20;77.34;100188.63;4994170;28;20579;-78
2022/11/14 07:34:54;;;;;;;9.07;8.18;;;;;;;8.25;77.23;100188.75;4989454;28;20550;-78
2022/11/14 07:37:20;;;;;;;8.03;7.33;;;;;;;8.29;77.39;100198.06;4996083;28;20403;-79
2022/11/14 07:39:45;;;;;;;8.68;7.22;;;;;;;8.33;77.03;100196.50;4996049;28;20410;-79
2022/11/14 07:42:11;;;;;;;7.93;7.23;;;;;;;8.36;77.06;100195.25;4998434;28;20404;-79
2022/11/14 07:44:36;;;;;;;11.25;7.70;;;;;;;8.38;77.13;100200.38;5010719;28;20900;-79
2022/11/14 07:47:01;;;;;;;8.63;7.82;;;;;;;8.36;77.49;100195.25;4995649;28;20413;-78
2022/11/14 07:49:26;;;;;;;8.13;7.33;;;;;;;8.33;77.03;100196.50;4996011;28;20731;-79
2022/11/14 07:51:52;;;;;;;8.43;7.53;;;;;;;8.34;77.35;100190.06;4999492;28;20528;-78
2022/11/14 07:54:17;;;;;;;8.93;8.03;;;;;;;8.37;77.58;100191.47;4996873;28;20423;-78
2022/11/14 07:56:42;;;;;;;10.20;8.93;;;;;;;8.41;76.82;100192.66;4998232;28;20441;-78
2022/11/14 07:59:07;;;;;;;10.97;8.30;;;;;;;8.39;77.16;100197.47;4994267;28;20753;-79
2022/11/14 08:01:33;;;;;;;9.10;8.20;;;;;;;8.42;76.79;100197.00;4991299;28;20509;-78
2022/11/14 08:03:58;;;;;;;11.23;7.90;;;;;;;8.40;76.97;100192.91;4996626;28;20417;-78
2022/11/14 08:06:23;;;;;;;9.30;8.17;;;;;;;8.33;77.46;100199.22;4996536;28;20509;-79
2022/11/14 08:08:48;;;;;;;8.93;7.97;;;;;;;8.36;76.93;100189.84;4996960;28;20438;-78
2022/11/14 08:11:15;;;;;;;8.97;8.07;;;;;;;8.36;77.03;100192.53;4993490;28;20557;-79
2022/11/14 08:13:40;;;;;;;8.05;7.22;;;;;;;8.42;77.44;100193.47;4986586;28;20507;-78
2022/11/14 08:16:08;;;;;;;9.70;7.47;;;;;;;8.46;76.61;100194.66;4998313;28;20543;-78
2022/11/14 08:18:34;;;;;;;9.07;7.80;;;;;;;8.55;76.94;100193.22;4998378;28;20406;-79
2022/11/14 08:21:03;;;;;;;9.07;8.17;;;;;;;8.55;76.48;100185.09;4998942;28;20421;-78
2022/11/14 08:23:28;;;;;;;10.50;7.55;;;;;;;8.56;76.71;100194.84;4994940;28;20406;-78
2022/11/14 08:25:53;;;;;;;8.18;7.32;;;;;;;8.53;77.02;100189.94;5004695;28;20393;-79
2022/11/14 08:28:18;;;;;;;8.33;7.23;;;;;;;8.56;76.64;100192.16;4996017;28;20407;-78
2022/11/14 08:30:44;;;;;;;8.10;7.10;;;;;;;8.61;76.82;100192.25;4992786;28;20554;-79
2022/11/14 08:33:09;;;;;;;8.73;7.70;;;;;;;8.67;76.27;100202.91;4990936;28;20987;-79
2022/11/14 08:35:35;;;;;;;9.97;7.37;;;;;;;8.71;76.08;100205.97;4995328;28;20479;-79
2022/11/14 08:38:01;;;;;;;9.35;7.72;;;;;;;8.72;76.04;100205.75;4993549;28;20473;-79
2022/11/14 08:40:26;;;;;;;9.05;7.97;;;;;;;8.73;75.83;100209.25;4995428;28;20434;-78
2022/11/14 08:42:58;;;;;;;8.13;7.33;;;;;;;8.71;75.91;100220.31;4993152;28;20521;-78
2022/11/14 08:45:23;;;;;;;8.73;7.33;;;;;;;8.66;76.51;100220.19;4993841;28;20503;-79
2022/11/14 08:47:52;;;;;;;8.97;8.07;;;;;;;8.68;76.11;100209.97;4998930;28;20427;-78
2022/11/14 08:50:18;;;;;;;10.18;8.10;;;;;;;8.72;75.86;100205.75;4998737;28;20493;-79
2022/11/14 08:52:48;;;;;;;8.93;7.88;;;;;;;8.72;76.32;100204.91;4998850;28;20521;-78
2022/11/14 08:55:13;;;;;;;9.10;8.20;;;;;;;8.74;76.35;100202.78;4988317;28;20411;-78
2022/11/14 08:57:39;;;;;;;9.73;8.70;;;;;;;8.80;75.66;100212.63;4996670;28;20497;-78
2022/11/14 09:00:04;;;;;;;11.00;7.78;;;;;;;8.81;75.78;100200.78;5000603;28;20412;-78
2022/11/14 09:02:30;;;;;;;11.45;7.75;;;;;;;8.87;75.72;100202.50;4991629;28;20414;-78
2022/11/14 09:04:55;;;;;;;10.30;9.30;;;;;;;8.93;75.67;100206.13;5027128;28;20401;-79
2022/11/14 09:07:20;;;;;;;10.60;9.30;;;;;;;8.93;75.75;100200.72;4995847;28;20406;-78
2022/11/14 09:09:46;;;;;;;9.83;8.77;;;;;;;8.96;75.65;100206.47;4998016;28;20489;-78
2022/11/14 09:12:11;;;;;;;8.73;7.83;;;;;;;9.00;75.04;100204.94;4991982;28;20942;-79
2022/11/14 09:14:36;;;;;;;9.03;8.23;;;;;;;9.05;75.18;100207.75;4999124;28;20402;-78
2022/11/14 09:17:02;;;;;;;8.97;8.17;;;;;;;9.14;74.99;100209.00;4995148;28;20925;-78
2022/11/14 09:19:27;;;;;;;8.80;8.00;;;;;;;9.16;74.69;100190.66;4992834;28;20405;-78
2022/11/14 09:21:52;;;;;;;8.97;8.07;;;;;;;9.22;74.67;100186.97;5007524;28;20444;-81
2022/11/14 09:24:18;;;;;;;8.65;7.75;;;;;;;9.26;74.60;100187.31;4998380;28;20409;-78
2022/11/14 09:26:43;;;;;;;9.07;8.17;;;;;;;9.27;74.34;100188.97;4998968;28;20402;-79
2022/11/14 09:29:08;;;;;;;9.67;7.60;;;;;;;9.25;74.02;100191.09;4991704;28;20450;-78
2022/11/14 09:31:33;;;;;;;9.63;8.10;;;;;;;9.24;74.44;100195.69;4993063;28;20423;-79
2022/11/14 09:33:59;;;;;;;9.97;8.07;;;;;;;9.26;74.56;100208.94;4993746;28;20873;-79
2022/11/14 09:36:27;;;;;;;10.30;8.70;;;;;;;9.24;74.51;100194.84;4993195;28;20458;-77
2022/11/14 09:38:53;;;;;;;10.25;8.30;;;;;;;9.23;74.81;100188.63;4989575;28;20421;-78
2022/11/14 09:41:25;;;;;;;9.43;8.47;;;;;;;9.24;74.74;100184.03;5011078;28;20434;-82
2022/11/14 09:44:21;;;;;;;9.40;8.32;;;;;;;9.23;75.00;100182.38;4996286;28;20782;-80
2022/11/14 09:46:52;;;;;;;13.07;8.50;;;;;;;9.22;74.93;100186.19;4991892;28;20405;-79
2022/11/14 09:49:26;;;;;;;12.70;9.05;;;;;;;9.20;75.06;100191.00;4992566;28;20425;-79
2022/11/14 09:52:01;;;;;;;11.63;9.43;;;;;;;9.15;75.34;100191.72;4990999;28;20460;-80
2022/11/14 09:54:39;;;;;;;10.10;9.10;;;;;;;9.14;74.96;100197.38;4996830;28;20501;-79
2022/11/14 09:57:14;;;;;;;13.30;9.37;;;;;;;9.15;75.47;100196.31;4983127;28;20529;-79
2022/11/14 09:59:39;;;;;;;10.48;8.68;;;;;;;9.18;75.09;100179.59;4989489;28;20896;-79
2022/11/14 10:02:18;;;;;;;10.00;9.00;;;;;;;9.21;75.19;100182.66;4993073;28;20499;-80
2022/11/14 10:05:00;;;;;;;9.77;8.70;;;;;;;9.21;74.90;100189.94;4993545;28;20420;-79
2022/11/14 10:08:00;;;;;;;9.52;8.57;;;;;;;9.23;75.01;100179.69;4991226;28;20406;-80
2022/11/14 10:10:48;;;;;;;9.43;8.20;;;;;;;9.25;75.09;100183.00;4993766;28;20410;-79
2022/11/14 10:13:28;;;;;;;8.82;7.93;;;;;;;9.21;75.02;100182.66;4992774;28;20419;-79
2022/11/14 10:16:03;;;;;;;9.40;7.40;;;;;;;9.22;74.94;100186.19;4992694;28;20448;-79
2022/11/14 10:19:03;;;;;;;9.95;8.95;;;;;;;9.25;74.98;100181.06;4985833;28;20561;-79
2022/11/14 10:21:44;;;;;;;9.98;8.90;;;;;;;9.25;74.84;100181.06;4999678;28;20468;-79
2022/11/14 10:24:24;;;;;;;9.50;8.52;;;;;;;9.24;75.24;100182.16;5001173;28;20507;-79
2022/11/14 10:27:04;;;;;;;9.25;8.32;;;;;;;9.23;74.98;100183.22;4998938;28;20411;-79
2022/11/14 10:29:47;;;;;;;10.65;8.77;;;;;;;9.25;75.07;100178.38;4987509;28;20430;-79
2022/11/14 10:32:25;;;;;;;9.55;8.55;;;;;;;9.27;74.94;100170.84;4988581;28;20451;-81
2022/11/14 10:35:01;;;;;;;9.88;8.43;;;;;;;9.30;75.12;100172.25;5022161;28;20399;-80
2022/11/14 10:37:34;;;;;;;8.57;7.68;;;;;;;9.32;74.78;100179.03;5028293;28;20400;-80
2022/11/14 10:40:22;;;;;;;8.35;7.45;;;;;;;9.34;74.97;100176.94;4999348;28;20756;-80
2022/11/14 10:43:00;;;;;;;9.50;8.18;;;;;;;9.34;75.13;100166.13;4998427;28;20482;-81
2022/11/14 10:45:31;;;;;;;9.68;8.40;;;;;;;9.33;75.26;100169.88;5005804;28;20437;-80
2022/11/14 10:48:02;;;;;;;9.07;8.05;;;;;;;9.30;75.20;100156.03;4995905;28;20489;-80
2022/11/14 10:50:41;;;;;;;9.70;8.35;;;;;;;9.32;74.98;100170.09;5014955;28;20408;-77
2022/11/14 10:53:20;;;;;;;11.52;7.60;;;;;;;9.32;75.30;100167.41;5000246;28;20491;-77
2022/11/14 10:55:49;;;;;;;9.65;8.50;;;;;;;9.29;75.56;100167.91;4995910;28;20765;-77
2022/11/14 10:58:14;;;;;;;11.68;8.50;;;;;;;9.29;75.31;100160.59;4992675;28;20766;-77
2022/11/14 11:00:40;;;;;;;10.43;8.40;;;;;;;9.31;75.39;100155.78;4996454;28;20428;-77
2022/11/14 11:03:06;;;;;;;11.67;8.63;;;;;;;9.34;75.36;100155.31;4990861;28;20903;-77
2022/11/14 11:05:45;;;;;;;10.23;7.75;;;;;;;9.35;75.37;100148.81;4991163;28;20975;-77
2022/11/14 11:13:51;;;;;;;11.73;9.57;;;;;;;9.36;75.27;100150.47;4992478;28;20824;-77
2022/11/14 11:16:20;;;;;;;17.63;11.03;;;;;;;9.34;75.17;100138.25;4993023;28;20414;-77
2022/11/14 11:18:46;;;;;;;12.10;9.27;;;;;;;9.35;75.66;100148.81;5003797;28;20763;-77
2022/11/14 11:21:14;;;;;;;10.67;8.63;;;;;;;9.36;75.36;100145.06;4995395;28;20404;-78
2022/11/14 11:23:50;;;;;;;9.48;8.45;;;;;;;9.47;75.27;100148.75;4986694;28;20437;-77
2022/11/14 11:26:17;;;;;;;10.97;8.00;;;;;;;9.54;75.38;100149.41;5003088;28;20419;-77
2022/11/14 11:29:01;;;;;;;9.77;8.25;;;;;;;9.52;75.08;100150.69;4991194;28;20504;-77
2022/11/14 11:31:26;;;;;;;10.70;8.55;;;;;;;9.52;75.51;100145.28;4993557;28;20418;-77
2022/11/14 11:33:51;;;;;;;11.65;8.52;;;;;;;9.55;75.53;100131.31;4994952;28;20765;-77